sensor_id;sensor_type;location;lat;lon;timestamp;P1;durP1;ratioP1;P2;durP2;ratioP2
69005;SDS011;56061;51.748;19.620;2023-02-28T13:27:21;13.90;;;6.50;;
69005;SDS011;56061;51.748;19.620;2023-02-28T13:29:59;13.90;;;6.60;;
69005;SDS011;56061;51.748;19.620;2023-02-28T13:32:30;16.20;;;6.90;;
69005;SDS011;56061;51.748;19.620;2023-02-28T13:39:53;15.10;;;6.80;;
69005;SDS011;56061;51.748;19.620;2023-02-28T13:47:39;16.60;;;8.10;;
69005;SDS011;56061;51.748;19.620;2023-02-28T13:58:46;16.40;;;8.30;;
69005;SDS011;56061;51.748;19.620;2023-02-28T14:07:03;14.70;;;7.60;;
69005;SDS011;56061;51.748;19.620;2023-02-28T14:09:38;12.80;;;7.20;;
69005;SDS011;56061;51.748;19.620;2023-02-28T14:15:41;15.30;;;8.30;;
69005;SDS011;56061;51.748;19.620;2023-02-28T14:18:22;14.60;;;6.90;;
69005;SDS011;56061;51.748;19.620;2023-02-28T14:21:27;13.60;;;7.10;;
69005;SDS011;56061;51.748;19.620;2023-02-28T14:30:11;12.60;;;6.00;;
69005;SDS011;56061;51.748;19.620;2023-02-28T14:36:12;12.60;;;6.00;;
69005;SDS011;56061;51.748;19.620;2023-02-28T14:38:47;13.20;;;6.50;;
69005;SDS011;56061;51.748;19.620;2023-02-28T14:41:28;13.40;;;7.00;;
69005;SDS011;56061;51.748;19.620;2023-02-28T14:44:00;14.20;;;6.90;;
69005;SDS011;56061;51.748;19.620;2023-02-28T14:46:38;13.00;;;6.90;;
69005;SDS011;56061;51.748;19.620;2023-02-28T14:49:20;13.20;;;6.60;;
69005;SDS011;56061;51.748;19.620;2023-02-28T14:52:20;12.50;;;6.20;;
69005;SDS011;56061;51.748;19.620;2023-02-28T14:55:17;12.00;;;6.10;;
69005;SDS011;56061;51.748;19.620;2023-02-28T14:57:56;12.10;;;6.20;;
69005;SDS011;56061;51.748;19.620;2023-02-28T15:00:29;12.20;;;6.30;;
69005;SDS011;56061;51.748;19.620;2023-02-28T15:02:59;12.00;;;5.70;;
69005;SDS011;56061;51.748;19.620;2023-02-28T15:05:30;12.20;;;5.90;;
69005;SDS011;56061;51.748;19.620;2023-02-28T15:10:33;14.60;;;6.20;;
69005;SDS011;56061;51.748;19.620;2023-02-28T15:13:11;11.00;;;5.60;;
69005;SDS011;56061;51.748;19.620;2023-02-28T15:15:48;14.80;;;6.50;;
69005;SDS011;56061;51.748;19.620;2023-02-28T15:18:47;12.60;;;6.40;;
69005;SDS011;56061;51.748;19.620;2023-02-28T15:21:26;14.50;;;6.90;;
69005;SDS011;56061;51.748;19.620;2023-02-28T15:24:00;12.70;;;6.40;;
69005;SDS011;56061;51.748;19.620;2023-02-28T15:26:38;13.10;;;6.80;;
69005;SDS011;56061;51.748;19.620;2023-02-28T15:29:13;14.40;;;6.50;;
69005;SDS011;56061;51.748;19.620;2023-02-28T15:31:49;24.20;;;9.70;;
69005;SDS011;56061;51.748;19.620;2023-02-28T15:34:33;42.50;;;13.50;;
69005;SDS011;56061;51.748;19.620;2023-02-28T15:39:54;28.70;;;10.60;;
69005;SDS011;56061;51.748;19.620;2023-02-28T15:42:28;27.80;;;10.40;;
69005;SDS011;56061;51.748;19.620;2023-02-28T15:44:56;25.10;;;10.20;;
69005;SDS011;56061;51.748;19.620;2023-02-28T15:47:26;22.70;;;9.30;;
69005;SDS011;56061;51.748;19.620;2023-02-28T15:50:00;22.10;;;8.70;;
69005;SDS011;56061;51.748;19.620;2023-02-28T15:52:40;21.80;;;9.30;;
69005;SDS011;56061;51.748;19.620;2023-02-28T15:55:20;21.60;;;9.70;;
69005;SDS011;56061;51.748;19.620;2023-02-28T15:57:52;19.70;;;9.10;;
69005;SDS011;56061;51.748;19.620;2023-02-28T16:00:23;18.10;;;8.00;;
69005;SDS011;56061;51.748;19.620;2023-02-28T16:02:52;16.80;;;8.40;;
69005;SDS011;56061;51.748;19.620;2023-02-28T16:05:23;19.40;;;8.90;;
69005;SDS011;56061;51.748;19.620;2023-02-28T16:07:55;19.10;;;9.10;;
69005;SDS011;56061;51.748;19.620;2023-02-28T16:10:26;20.30;;;8.70;;
69005;SDS011;56061;51.748;19.620;2023-02-28T16:12:54;20.40;;;8.50;;
69005;SDS011;56061;51.748;19.620;2023-02-28T16:15:28;19.00;;;8.80;;
69005;SDS011;56061;51.748;19.620;2023-02-28T16:18:01;18.60;;;8.50;;
69005;SDS011;56061;51.748;19.620;2023-02-28T16:20:30;24.50;;;9.70;;
69005;SDS011;56061;51.748;19.620;2023-02-28T16:22:57;19.50;;;9.50;;
69005;SDS011;56061;51.748;19.620;2023-02-28T16:25:39;23.70;;;10.90;;
69005;SDS011;56061;51.748;19.620;2023-02-28T16:28:20;34.20;;;11.80;;
69005;SDS011;56061;51.748;19.620;2023-02-28T16:30:51;27.50;;;10.70;;
69005;SDS011;56061;51.748;19.620;2023-02-28T16:33:18;35.80;;;12.60;;
69005;SDS011;56061;51.748;19.620;2023-02-28T16:35:45;42.60;;;13.30;;
69005;SDS011;56061;51.748;19.620;2023-02-28T16:38:11;43.20;;;14.50;;
69005;SDS011;56061;51.748;19.620;2023-02-28T16:40:37;34.20;;;12.00;;
69005;SDS011;56061;51.748;19.620;2023-02-28T16:43:09;31.00;;;11.30;;
69005;SDS011;56061;51.748;19.620;2023-02-28T16:45:42;35.60;;;13.00;;
69005;SDS011;56061;51.748;19.620;2023-02-28T16:48:14;37.70;;;14.20;;
69005;SDS011;56061;51.748;19.620;2023-02-28T16:50:42;37.60;;;14.30;;
69005;SDS011;56061;51.748;19.620;2023-02-28T16:53:12;47.00;;;15.50;;
69005;SDS011;56061;51.748;19.620;2023-02-28T16:55:40;31.00;;;11.30;;
69005;SDS011;56061;51.748;19.620;2023-02-28T16:58:06;26.20;;;11.60;;
69005;SDS011;56061;51.748;19.620;2023-02-28T17:00:33;29.30;;;11.90;;
69005;SDS011;56061;51.748;19.620;2023-02-28T17:02:59;34.80;;;13.50;;
69005;SDS011;56061;51.748;19.620;2023-02-28T17:05:35;45.00;;;15.50;;
69005;SDS011;56061;51.748;19.620;2023-02-28T17:08:05;51.00;;;18.20;;
69005;SDS011;56061;51.748;19.620;2023-02-28T17:10:32;49.30;;;18.10;;
69005;SDS011;56061;51.748;19.620;2023-02-28T17:12:58;47.70;;;18.80;;
69005;SDS011;56061;51.748;19.620;2023-02-28T17:15:39;94.60;;;35.80;;
69005;SDS011;56061;51.748;19.620;2023-02-28T17:18:13;95.60;;;35.10;;
69005;SDS011;56061;51.748;19.620;2023-02-28T17:20:46;98.00;;;34.60;;
69005;SDS011;56061;51.748;19.620;2023-02-28T17:23:13;114.50;;;35.10;;
69005;SDS011;56061;51.748;19.620;2023-02-28T17:25:39;95.30;;;33.70;;
69005;SDS011;56061;51.748;19.620;2023-02-28T17:28:06;59.20;;;21.60;;
69005;SDS011;56061;51.748;19.620;2023-02-28T17:30:33;32.30;;;13.30;;
69005;SDS011;56061;51.748;19.620;2023-02-28T17:33:00;30.50;;;15.40;;
69005;SDS011;56061;51.748;19.620;2023-02-28T17:35:27;31.60;;;13.20;;
69005;SDS011;56061;51.748;19.620;2023-02-28T17:37:54;31.60;;;13.50;;
69005;SDS011;56061;51.748;19.620;2023-02-28T17:40:22;30.30;;;13.30;;
69005;SDS011;56061;51.748;19.620;2023-02-28T17:42:50;35.00;;;15.70;;
69005;SDS011;56061;51.748;19.620;2023-02-28T17:45:18;32.90;;;15.00;;
69005;SDS011;56061;51.748;19.620;2023-02-28T17:47:48;34.30;;;16.10;;
69005;SDS011;56061;51.748;19.620;2023-02-28T17:50:19;37.30;;;17.10;;
69005;SDS011;56061;51.748;19.620;2023-02-28T17:52:48;38.00;;;16.00;;
69005;SDS011;56061;51.748;19.620;2023-02-28T17:55:16;41.10;;;16.40;;
69005;SDS011;56061;51.748;19.620;2023-02-28T17:57:45;49.50;;;17.90;;
69005;SDS011;56061;51.748;19.620;2023-02-28T18:00:14;42.10;;;18.60;;
69005;SDS011;56061;51.748;19.620;2023-02-28T18:02:42;41.80;;;18.60;;
69005;SDS011;56061;51.748;19.620;2023-02-28T18:05:10;46.40;;;19.20;;
69005;SDS011;56061;51.748;19.620;2023-02-28T18:07:38;44.80;;;19.00;;
69005;SDS011;56061;51.748;19.620;2023-02-28T18:10:07;49.10;;;20.00;;
69005;SDS011;56061;51.748;19.620;2023-02-28T18:12:41;101.00;;;35.00;;
69005;SDS011;56061;51.748;19.620;2023-02-28T18:15:08;99.70;;;35.20;;
69005;SDS011;56061;51.748;19.620;2023-02-28T18:17:35;76.90;;;27.00;;
69005;SDS011;56061;51.748;19.620;2023-02-28T18:20:01;78.70;;;27.10;;
69005;SDS011;56061;51.748;19.620;2023-02-28T18:22:29;65.70;;;27.60;;
69005;SDS011;56061;51.748;19.620;2023-02-28T18:24:56;62.50;;;24.40;;
69005;SDS011;56061;51.748;19.620;2023-02-28T18:27:22;72.00;;;27.90;;
69005;SDS011;56061;51.748;19.620;2023-02-28T18:29:49;77.90;;;31.40;;
69005;SDS011;56061;51.748;19.620;2023-02-28T18:32:17;73.80;;;28.20;;
69005;SDS011;56061;51.748;19.620;2023-02-28T18:34:44;62.50;;;23.60;;
69005;SDS011;56061;51.748;19.620;2023-02-28T18:37:10;52.60;;;23.00;;
69005;SDS011;56061;51.748;19.620;2023-02-28T18:39:37;53.90;;;22.10;;
69005;SDS011;56061;51.748;19.620;2023-02-28T18:42:04;42.40;;;18.40;;
69005;SDS011;56061;51.748;19.620;2023-02-28T18:44:30;47.70;;;20.00;;
69005;SDS011;56061;51.748;19.620;2023-02-28T18:46:56;64.50;;;25.70;;
69005;SDS011;56061;51.748;19.620;2023-02-28T18:49:23;60.20;;;26.60;;
69005;SDS011;56061;51.748;19.620;2023-02-28T18:51:50;60.90;;;28.30;;
69005;SDS011;56061;51.748;19.620;2023-02-28T18:54:16;56.90;;;26.00;;
69005;SDS011;56061;51.748;19.620;2023-02-28T18:56:43;61.00;;;29.80;;
69005;SDS011;56061;51.748;19.620;2023-02-28T18:59:10;42.70;;;19.80;;
69005;SDS011;56061;51.748;19.620;2023-02-28T19:01:37;45.00;;;22.20;;
69005;SDS011;56061;51.748;19.620;2023-02-28T19:04:05;52.80;;;23.80;;
69005;SDS011;56061;51.748;19.620;2023-02-28T19:06:32;54.50;;;24.10;;
69005;SDS011;56061;51.748;19.620;2023-02-28T19:09:01;72.40;;;27.50;;
69005;SDS011;56061;51.748;19.620;2023-02-28T19:11:30;83.00;;;31.40;;
69005;SDS011;56061;51.748;19.620;2023-02-28T19:13:57;76.60;;;28.40;;
69005;SDS011;56061;51.748;19.620;2023-02-28T19:16:24;67.50;;;27.00;;
69005;SDS011;56061;51.748;19.620;2023-02-28T19:18:51;65.70;;;26.20;;
69005;SDS011;56061;51.748;19.620;2023-02-28T19:21:19;103.10;;;35.20;;
69005;SDS011;56061;51.748;19.620;2023-02-28T19:23:47;157.00;;;58.00;;
69005;SDS011;56061;51.748;19.620;2023-02-28T19:26:16;228.40;;;75.00;;
69005;SDS011;56061;51.748;19.620;2023-02-28T19:28:45;205.30;;;71.00;;
69005;SDS011;56061;51.748;19.620;2023-02-28T19:31:22;168.70;;;66.20;;
69005;SDS011;56061;51.748;19.620;2023-02-28T19:33:51;155.30;;;67.70;;
69005;SDS011;56061;51.748;19.620;2023-02-28T19:36:18;196.70;;;80.00;;
69005;SDS011;56061;51.748;19.620;2023-02-28T19:38:46;259.90;;;101.00;;
69005;SDS011;56061;51.748;19.620;2023-02-28T19:41:14;213.10;;;87.50;;
69005;SDS011;56061;51.748;19.620;2023-02-28T19:43:42;217.70;;;82.90;;
69005;SDS011;56061;51.748;19.620;2023-02-28T19:46:09;247.70;;;91.70;;
69005;SDS011;56061;51.748;19.620;2023-02-28T19:48:37;291.40;;;104.00;;
69005;SDS011;56061;51.748;19.620;2023-02-28T19:51:07;332.00;;;116.60;;
69005;SDS011;56061;51.748;19.620;2023-02-28T19:53:37;349.40;;;130.00;;
69005;SDS011;56061;51.748;19.620;2023-02-28T19:56:06;321.90;;;117.60;;
69005;SDS011;56061;51.748;19.620;2023-02-28T19:58:33;333.90;;;120.30;;
69005;SDS011;56061;51.748;19.620;2023-02-28T20:01:13;326.70;;;122.20;;
69005;SDS011;56061;51.748;19.620;2023-02-28T20:03:41;314.40;;;116.50;;
69005;SDS011;56061;51.748;19.620;2023-02-28T20:06:10;292.40;;;107.10;;
69005;SDS011;56061;51.748;19.620;2023-02-28T20:08:40;422.50;;;164.90;;
69005;SDS011;56061;51.748;19.620;2023-02-28T20:11:10;362.40;;;134.50;;
69005;SDS011;56061;51.748;19.620;2023-02-28T20:13:38;356.10;;;134.00;;
69005;SDS011;56061;51.748;19.620;2023-02-28T20:16:07;342.50;;;129.50;;
69005;SDS011;56061;51.748;19.620;2023-02-28T20:18:37;321.80;;;119.30;;
69005;SDS011;56061;51.748;19.620;2023-02-28T20:21:09;274.00;;;105.70;;
69005;SDS011;56061;51.748;19.620;2023-02-28T20:23:38;282.00;;;110.30;;
69005;SDS011;56061;51.748;19.620;2023-02-28T20:26:05;271.00;;;112.00;;
69005;SDS011;56061;51.748;19.620;2023-02-28T20:28:32;258.50;;;107.20;;
69005;SDS011;56061;51.748;19.620;2023-02-28T20:30:59;267.30;;;104.00;;
69005;SDS011;56061;51.748;19.620;2023-02-28T20:33:26;212.50;;;85.90;;
69005;SDS011;56061;51.748;19.620;2023-02-28T20:36:00;247.90;;;87.10;;
69005;SDS011;56061;51.748;19.620;2023-02-28T20:38:27;251.80;;;93.00;;
69005;SDS011;56061;51.748;19.620;2023-02-28T20:40:54;298.90;;;110.60;;
69005;SDS011;56061;51.748;19.620;2023-02-28T20:43:23;434.50;;;138.30;;
69005;SDS011;56061;51.748;19.620;2023-02-28T20:45:55;451.90;;;139.40;;
69005;SDS011;56061;51.748;19.620;2023-02-28T20:48:24;457.30;;;134.20;;
69005;SDS011;56061;51.748;19.620;2023-02-28T20:50:52;457.10;;;140.10;;
69005;SDS011;56061;51.748;19.620;2023-02-28T20:53:21;247.60;;;79.80;;
69005;SDS011;56061;51.748;19.620;2023-02-28T20:56:16;153.40;;;54.00;;
69005;SDS011;56061;51.748;19.620;2023-02-28T20:58:50;155.90;;;58.10;;
69005;SDS011;56061;51.748;19.620;2023-02-28T21:01:24;109.30;;;46.40;;
69005;SDS011;56061;51.748;19.620;2023-02-28T21:04:01;114.80;;;46.50;;
69005;SDS011;56061;51.748;19.620;2023-02-28T21:06:36;121.90;;;49.50;;
69005;SDS011;56061;51.748;19.620;2023-02-28T21:09:06;124.50;;;51.60;;
69005;SDS011;56061;51.748;19.620;2023-02-28T21:11:35;136.00;;;52.10;;
69005;SDS011;56061;51.748;19.620;2023-02-28T21:14:10;113.10;;;41.30;;
69005;SDS011;56061;51.748;19.620;2023-02-28T21:16:39;112.40;;;44.00;;
69005;SDS011;56061;51.748;19.620;2023-02-28T21:19:06;118.70;;;44.70;;
69005;SDS011;56061;51.748;19.620;2023-02-28T21:21:36;129.90;;;49.10;;
69005;SDS011;56061;51.748;19.620;2023-02-28T21:24:05;129.30;;;48.40;;
69005;SDS011;56061;51.748;19.620;2023-02-28T21:26:32;150.90;;;49.90;;
69005;SDS011;56061;51.748;19.620;2023-02-28T21:29:00;145.00;;;48.50;;
69005;SDS011;56061;51.748;19.620;2023-02-28T21:31:30;140.60;;;49.70;;
69005;SDS011;56061;51.748;19.620;2023-02-28T21:33:59;147.30;;;51.80;;
69005;SDS011;56061;51.748;19.620;2023-02-28T21:36:29;143.70;;;53.20;;
69005;SDS011;56061;51.748;19.620;2023-02-28T21:39:03;167.80;;;59.10;;
69005;SDS011;56061;51.748;19.620;2023-02-28T21:41:34;242.60;;;80.30;;
69005;SDS011;56061;51.748;19.620;2023-02-28T21:44:02;226.70;;;76.50;;
69005;SDS011;56061;51.748;19.620;2023-02-28T21:46:28;317.60;;;105.40;;
69005;SDS011;56061;51.748;19.620;2023-02-28T21:48:56;322.60;;;103.40;;
69005;SDS011;56061;51.748;19.620;2023-02-28T21:51:28;276.00;;;91.70;;
69005;SDS011;56061;51.748;19.620;2023-02-28T21:53:57;252.90;;;84.40;;
69005;SDS011;56061;51.748;19.620;2023-02-28T21:56:27;246.50;;;81.40;;
69005;SDS011;56061;51.748;19.620;2023-02-28T21:58:56;275.30;;;88.70;;
69005;SDS011;56061;51.748;19.620;2023-02-28T22:01:34;273.10;;;84.10;;
69005;SDS011;56061;51.748;19.620;2023-02-28T22:04:08;249.80;;;80.90;;
69005;SDS011;56061;51.748;19.620;2023-02-28T22:06:38;249.50;;;81.50;;
69005;SDS011;56061;51.748;19.620;2023-02-28T22:09:07;238.40;;;80.20;;
69005;SDS011;56061;51.748;19.620;2023-02-28T22:11:36;124.10;;;50.10;;
69005;SDS011;56061;51.748;19.620;2023-02-28T22:14:05;124.20;;;46.80;;
69005;SDS011;56061;51.748;19.620;2023-02-28T22:16:32;131.60;;;49.60;;
69005;SDS011;56061;51.748;19.620;2023-02-28T22:19:17;116.50;;;43.30;;
69005;SDS011;56061;51.748;19.620;2023-02-28T22:21:45;106.80;;;42.40;;
69005;SDS011;56061;51.748;19.620;2023-02-28T22:24:13;90.90;;;36.60;;
69005;SDS011;56061;51.748;19.620;2023-02-28T22:26:40;112.10;;;44.70;;
69005;SDS011;56061;51.748;19.620;2023-02-28T22:29:07;96.50;;;41.60;;
69005;SDS011;56061;51.748;19.620;2023-02-28T22:31:34;88.10;;;38.10;;
69005;SDS011;56061;51.748;19.620;2023-02-28T22:34:05;98.10;;;40.40;;
69005;SDS011;56061;51.748;19.620;2023-02-28T22:36:34;96.00;;;36.80;;
69005;SDS011;56061;51.748;19.620;2023-02-28T22:39:02;85.40;;;35.70;;
69005;SDS011;56061;51.748;19.620;2023-02-28T22:41:30;93.60;;;36.40;;
69005;SDS011;56061;51.748;19.620;2023-02-28T22:43:59;93.00;;;37.50;;
69005;SDS011;56061;51.748;19.620;2023-02-28T22:46:30;92.50;;;38.00;;
69005;SDS011;56061;51.748;19.620;2023-02-28T22:49:00;105.00;;;39.90;;
69005;SDS011;56061;51.748;19.620;2023-02-28T22:51:28;106.30;;;39.80;;
69005;SDS011;56061;51.748;19.620;2023-02-28T22:53:56;154.00;;;51.00;;
69005;SDS011;56061;51.748;19.620;2023-02-28T22:56:25;128.50;;;47.40;;
69005;SDS011;56061;51.748;19.620;2023-02-28T22:58:56;113.30;;;42.00;;
69005;SDS011;56061;51.748;19.620;2023-02-28T23:01:27;85.10;;;35.10;;
69005;SDS011;56061;51.748;19.620;2023-02-28T23:03:56;114.60;;;42.50;;
69005;SDS011;56061;51.748;19.620;2023-02-28T23:06:27;98.60;;;38.50;;
69005;SDS011;56061;51.748;19.620;2023-02-28T23:09:00;95.40;;;38.40;;
69005;SDS011;56061;51.748;19.620;2023-02-28T23:11:32;98.40;;;39.80;;
69005;SDS011;56061;51.748;19.620;2023-02-28T23:14:01;131.80;;;46.90;;
69005;SDS011;56061;51.748;19.620;2023-02-28T23:16:34;155.90;;;54.40;;
69005;SDS011;56061;51.748;19.620;2023-02-28T23:19:06;200.60;;;62.70;;
69005;SDS011;56061;51.748;19.620;2023-02-28T23:21:37;239.60;;;74.10;;
69005;SDS011;56061;51.748;19.620;2023-02-28T23:24:05;263.10;;;78.10;;
69005;SDS011;56061;51.748;19.620;2023-02-28T23:26:36;275.00;;;81.50;;
69005;SDS011;56061;51.748;19.620;2023-02-28T23:29:05;273.60;;;86.20;;
69005;SDS011;56061;51.748;19.620;2023-02-28T23:31:32;270.30;;;85.20;;
69005;SDS011;56061;51.748;19.620;2023-02-28T23:33:59;243.40;;;82.20;;
69005;SDS011;56061;51.748;19.620;2023-02-28T23:36:26;230.40;;;76.90;;
69005;SDS011;56061;51.748;19.620;2023-02-28T23:38:52;224.10;;;75.60;;
69005;SDS011;56061;51.748;19.620;2023-02-28T23:41:20;204.10;;;71.80;;
69005;SDS011;56061;51.748;19.620;2023-02-28T23:43:48;183.60;;;64.50;;
69005;SDS011;56061;51.748;19.620;2023-02-28T23:46:18;174.40;;;64.10;;
69005;SDS011;56061;51.748;19.620;2023-02-28T23:48:45;174.80;;;60.90;;
69005;SDS011;56061;51.748;19.620;2023-02-28T23:51:18;200.60;;;71.90;;
69005;SDS011;56061;51.748;19.620;2023-02-28T23:53:49;235.90;;;83.80;;
69005;SDS011;56061;51.748;19.620;2023-02-28T23:56:24;246.10;;;88.00;;
69005;SDS011;56061;51.748;19.620;2023-02-28T23:58:53;216.70;;;79.40;;
